sensor_id;sensor_type;location;lat;lon;timestamp;P1;durP1;ratioP1;P2;durP2;ratioP2
18933;SDS011;9599;53.706;10.384;2023-05-18T00:02:19;21.53;;;20.10;;
18933;SDS011;9599;53.706;10.384;2023-05-18T00:04:48;21.93;;;20.33;;
18933;SDS011;9599;53.706;10.384;2023-05-18T00:07:17;22.70;;;21.13;;
18933;SDS011;9599;53.706;10.384;2023-05-18T00:09:44;21.37;;;19.97;;
18933;SDS011;9599;53.706;10.384;2023-05-18T00:12:13;21.57;;;20.17;;
18933;SDS011;9599;53.706;10.384;2023-05-18T00:14:43;23.77;;;22.20;;
18933;SDS011;9599;53.706;10.384;2023-05-18T00:17:11;23.43;;;21.67;;
18933;SDS011;9599;53.706;10.384;2023-05-18T00:19:40;22.03;;;20.63;;
18933;SDS011;9599;53.706;10.384;2023-05-18T00:22:08;23.97;;;22.33;;
18933;SDS011;9599;53.706;10.384;2023-05-18T00:24:36;24.60;;;22.80;;
18933;SDS011;9599;53.706;10.384;2023-05-18T00:27:05;24.40;;;22.90;;
18933;SDS011;9599;53.706;10.384;2023-05-18T00:29:33;24.33;;;23.00;;
18933;SDS011;9599;53.706;10.384;2023-05-18T00:32:03;23.97;;;22.37;;
18933;SDS011;9599;53.706;10.384;2023-05-18T00:34:32;24.23;;;22.53;;
18933;SDS011;9599;53.706;10.384;2023-05-18T00:37:01;24.10;;;22.63;;
18933;SDS011;9599;53.706;10.384;2023-05-18T00:39:29;24.90;;;23.17;;
18933;SDS011;9599;53.706;10.384;2023-05-18T00:41:57;24.07;;;22.30;;
18933;SDS011;9599;53.706;10.384;2023-05-18T00:44:26;24.23;;;22.53;;
18933;SDS011;9599;53.706;10.384;2023-05-18T00:46:54;24.53;;;23.00;;
18933;SDS011;9599;53.706;10.384;2023-05-18T00:49:24;24.20;;;22.67;;
18933;SDS011;9599;53.706;10.384;2023-05-18T00:51:53;23.57;;;21.87;;
18933;SDS011;9599;53.706;10.384;2023-05-18T00:54:23;24.83;;;23.03;;
18933;SDS011;9599;53.706;10.384;2023-05-18T00:56:52;23.20;;;21.70;;
18933;SDS011;9599;53.706;10.384;2023-05-18T00:59:20;23.57;;;22.00;;
18933;SDS011;9599;53.706;10.384;2023-05-18T01:01:51;25.10;;;23.50;;
18933;SDS011;9599;53.706;10.384;2023-05-18T01:04:19;25.20;;;23.70;;
18933;SDS011;9599;53.706;10.384;2023-05-18T01:06:50;25.43;;;23.83;;
18933;SDS011;9599;53.706;10.384;2023-05-18T01:09:22;24.40;;;22.67;;
18933;SDS011;9599;53.706;10.384;2023-05-18T01:11:55;25.70;;;23.97;;
18933;SDS011;9599;53.706;10.384;2023-05-18T01:14:30;24.13;;;22.23;;
18933;SDS011;9599;53.706;10.384;2023-05-18T01:17:02;23.83;;;22.20;;
18933;SDS011;9599;53.706;10.384;2023-05-18T01:22:41;26.43;;;24.33;;
18933;SDS011;9599;53.706;10.384;2023-05-18T01:25:38;25.90;;;24.00;;
18933;SDS011;9599;53.706;10.384;2023-05-18T01:28:17;23.57;;;21.53;;
18933;SDS011;9599;53.706;10.384;2023-05-18T01:30:47;24.67;;;22.90;;
18933;SDS011;9599;53.706;10.384;2023-05-18T01:33:16;23.83;;;22.07;;
18933;SDS011;9599;53.706;10.384;2023-05-18T01:35:44;23.53;;;21.90;;
18933;SDS011;9599;53.706;10.384;2023-05-18T01:38:15;23.23;;;21.50;;
18933;SDS011;9599;53.706;10.384;2023-05-18T01:40:47;21.90;;;20.33;;
18933;SDS011;9599;53.706;10.384;2023-05-18T01:43:30;22.47;;;20.70;;
18933;SDS011;9599;53.706;10.384;2023-05-18T01:46:03;21.03;;;19.57;;
18933;SDS011;9599;53.706;10.384;2023-05-18T01:48:38;21.80;;;20.03;;
18933;SDS011;9599;53.706;10.384;2023-05-18T01:51:12;22.10;;;20.50;;
18933;SDS011;9599;53.706;10.384;2023-05-18T01:53:44;23.00;;;21.20;;
18933;SDS011;9599;53.706;10.384;2023-05-18T01:56:28;22.00;;;20.43;;
18933;SDS011;9599;53.706;10.384;2023-05-18T01:59:00;22.33;;;20.23;;
18933;SDS011;9599;53.706;10.384;2023-05-18T02:01:29;21.07;;;19.43;;
18933;SDS011;9599;53.706;10.384;2023-05-18T02:03:57;19.73;;;18.60;;
18933;SDS011;9599;53.706;10.384;2023-05-18T02:06:28;21.60;;;19.73;;
18933;SDS011;9599;53.706;10.384;2023-05-18T02:08:57;21.87;;;20.03;;
18933;SDS011;9599;53.706;10.384;2023-05-18T02:11:25;20.90;;;19.20;;
18933;SDS011;9599;53.706;10.384;2023-05-18T02:13:53;20.20;;;18.63;;
18933;SDS011;9599;53.706;10.384;2023-05-18T02:16:23;20.87;;;19.27;;
18933;SDS011;9599;53.706;10.384;2023-05-18T02:18:50;20.20;;;17.97;;
18933;SDS011;9599;53.706;10.384;2023-05-18T02:21:19;19.73;;;18.00;;
18933;SDS011;9599;53.706;10.384;2023-05-18T02:23:48;19.87;;;18.40;;
18933;SDS011;9599;53.706;10.384;2023-05-18T02:26:16;19.73;;;18.00;;
18933;SDS011;9599;53.706;10.384;2023-05-18T02:28:50;19.50;;;17.80;;
18933;SDS011;9599;53.706;10.384;2023-05-18T02:31:20;20.57;;;19.17;;
18933;SDS011;9599;53.706;10.384;2023-05-18T02:33:49;19.73;;;18.13;;
18933;SDS011;9599;53.706;10.384;2023-05-18T02:36:17;21.47;;;19.77;;
18933;SDS011;9599;53.706;10.384;2023-05-18T02:38:48;21.30;;;19.60;;
18933;SDS011;9599;53.706;10.384;2023-05-18T02:41:16;21.07;;;19.37;;
18933;SDS011;9599;53.706;10.384;2023-05-18T02:43:44;20.07;;;18.60;;
18933;SDS011;9599;53.706;10.384;2023-05-18T02:46:12;20.20;;;18.70;;
18933;SDS011;9599;53.706;10.384;2023-05-18T02:48:40;19.63;;;18.17;;
18933;SDS011;9599;53.706;10.384;2023-05-18T02:51:12;20.37;;;18.67;;
18933;SDS011;9599;53.706;10.384;2023-05-18T02:53:40;21.80;;;20.00;;
18933;SDS011;9599;53.706;10.384;2023-05-18T02:56:11;22.87;;;21.07;;
18933;SDS011;9599;53.706;10.384;2023-05-18T02:58:48;22.83;;;21.30;;
18933;SDS011;9599;53.706;10.384;2023-05-18T03:01:28;23.00;;;21.40;;
18933;SDS011;9599;53.706;10.384;2023-05-18T03:03:56;21.60;;;20.20;;
18933;SDS011;9599;53.706;10.384;2023-05-18T03:06:26;23.60;;;21.73;;
18933;SDS011;9599;53.706;10.384;2023-05-18T03:08:56;22.33;;;20.93;;
18933;SDS011;9599;53.706;10.384;2023-05-18T03:11:32;23.00;;;21.43;;
18933;SDS011;9599;53.706;10.384;2023-05-18T03:14:00;22.87;;;21.43;;
18933;SDS011;9599;53.706;10.384;2023-05-18T03:16:28;22.03;;;20.63;;
18933;SDS011;9599;53.706;10.384;2023-05-18T03:18:56;23.80;;;22.27;;
18933;SDS011;9599;53.706;10.384;2023-05-18T03:21:36;23.70;;;22.03;;
18933;SDS011;9599;53.706;10.384;2023-05-18T03:24:05;23.90;;;22.27;;
18933;SDS011;9599;53.706;10.384;2023-05-18T03:26:36;23.37;;;21.87;;
18933;SDS011;9599;53.706;10.384;2023-05-18T03:29:08;24.50;;;22.90;;
18933;SDS011;9599;53.706;10.384;2023-05-18T03:31:36;26.47;;;24.60;;
18933;SDS011;9599;53.706;10.384;2023-05-18T03:34:04;25.27;;;23.63;;
18933;SDS011;9599;53.706;10.384;2023-05-18T03:36:32;26.53;;;24.63;;
18933;SDS011;9599;53.706;10.384;2023-05-18T03:39:05;26.60;;;24.80;;
18933;SDS011;9599;53.706;10.384;2023-05-18T03:41:33;25.10;;;23.40;;
18933;SDS011;9599;53.706;10.384;2023-05-18T03:44:01;26.27;;;24.30;;
18933;SDS011;9599;53.706;10.384;2023-05-18T03:46:30;25.40;;;23.70;;
18933;SDS011;9599;53.706;10.384;2023-05-18T03:48:58;25.87;;;24.10;;
18933;SDS011;9599;53.706;10.384;2023-05-18T03:51:34;28.90;;;26.90;;
18933;SDS011;9599;53.706;10.384;2023-05-18T03:54:03;26.07;;;24.30;;
18933;SDS011;9599;53.706;10.384;2023-05-18T03:56:34;24.50;;;22.90;;
18933;SDS011;9599;53.706;10.384;2023-05-18T03:59:02;28.20;;;26.27;;
18933;SDS011;9599;53.706;10.384;2023-05-18T04:01:32;26.57;;;24.90;;
18933;SDS011;9599;53.706;10.384;2023-05-18T04:04:00;23.97;;;22.30;;
18933;SDS011;9599;53.706;10.384;2023-05-18T04:06:30;25.30;;;23.67;;
18933;SDS011;9599;53.706;10.384;2023-05-18T04:09:00;23.63;;;21.80;;
18933;SDS011;9599;53.706;10.384;2023-05-18T04:11:31;24.70;;;22.93;;
18933;SDS011;9599;53.706;10.384;2023-05-18T04:14:00;24.80;;;22.80;;
18933;SDS011;9599;53.706;10.384;2023-05-18T04:16:28;25.10;;;23.07;;
18933;SDS011;9599;53.706;10.384;2023-05-18T04:18:58;22.23;;;20.60;;
18933;SDS011;9599;53.706;10.384;2023-05-18T04:21:27;23.70;;;21.80;;
18933;SDS011;9599;53.706;10.384;2023-05-18T04:24:01;22.93;;;21.00;;
18933;SDS011;9599;53.706;10.384;2023-05-18T04:26:34;23.60;;;21.80;;
18933;SDS011;9599;53.706;10.384;2023-05-18T04:29:03;22.40;;;20.93;;
18933;SDS011;9599;53.706;10.384;2023-05-18T04:31:33;21.27;;;19.70;;
18933;SDS011;9599;53.706;10.384;2023-05-18T04:34:02;22.73;;;20.60;;
18933;SDS011;9599;53.706;10.384;2023-05-18T04:36:30;21.07;;;19.33;;
18933;SDS011;9599;53.706;10.384;2023-05-18T04:39:00;21.93;;;20.17;;
18933;SDS011;9599;53.706;10.384;2023-05-18T04:41:34;20.27;;;18.87;;
18933;SDS011;9599;53.706;10.384;2023-05-18T04:44:02;21.03;;;19.37;;
18933;SDS011;9599;53.706;10.384;2023-05-18T04:46:30;19.97;;;18.17;;
18933;SDS011;9599;53.706;10.384;2023-05-18T04:49:01;20.27;;;18.50;;
18933;SDS011;9599;53.706;10.384;2023-05-18T04:51:32;20.30;;;18.20;;
18933;SDS011;9599;53.706;10.384;2023-05-18T04:54:02;19.80;;;18.10;;
18933;SDS011;9599;53.706;10.384;2023-05-18T04:56:31;20.27;;;18.33;;
18933;SDS011;9599;53.706;10.384;2023-05-18T04:59:01;20.03;;;18.10;;
18933;SDS011;9599;53.706;10.384;2023-05-18T05:01:29;19.77;;;18.00;;
18933;SDS011;9599;53.706;10.384;2023-05-18T05:03:57;19.77;;;18.30;;
18933;SDS011;9599;53.706;10.384;2023-05-18T05:06:25;18.97;;;17.43;;
18933;SDS011;9599;53.706;10.384;2023-05-18T05:08:53;21.10;;;19.40;;
18933;SDS011;9599;53.706;10.384;2023-05-18T05:11:21;20.80;;;18.83;;
18933;SDS011;9599;53.706;10.384;2023-05-18T05:13:49;20.03;;;18.50;;
18933;SDS011;9599;53.706;10.384;2023-05-18T05:16:19;20.17;;;18.37;;
18933;SDS011;9599;53.706;10.384;2023-05-18T05:18:48;20.10;;;18.27;;
18933;SDS011;9599;53.706;10.384;2023-05-18T05:21:16;20.80;;;19.00;;
18933;SDS011;9599;53.706;10.384;2023-05-18T05:23:44;20.50;;;18.80;;
18933;SDS011;9599;53.706;10.384;2023-05-18T05:26:12;21.53;;;19.90;;
18933;SDS011;9599;53.706;10.384;2023-05-18T05:28:40;20.70;;;19.30;;
18933;SDS011;9599;53.706;10.384;2023-05-18T05:31:08;21.37;;;19.70;;
18933;SDS011;9599;53.706;10.384;2023-05-18T05:33:38;20.13;;;18.23;;
18933;SDS011;9599;53.706;10.384;2023-05-18T05:36:06;22.13;;;20.43;;
18933;SDS011;9599;53.706;10.384;2023-05-18T05:38:36;21.37;;;19.70;;
18933;SDS011;9599;53.706;10.384;2023-05-18T05:41:04;21.47;;;19.83;;
18933;SDS011;9599;53.706;10.384;2023-05-18T05:43:32;21.27;;;19.67;;
18933;SDS011;9599;53.706;10.384;2023-05-18T05:46:01;21.03;;;19.20;;
18933;SDS011;9599;53.706;10.384;2023-05-18T05:48:29;20.67;;;19.37;;
18933;SDS011;9599;53.706;10.384;2023-05-18T05:50:58;22.07;;;20.33;;
18933;SDS011;9599;53.706;10.384;2023-05-18T05:53:28;21.50;;;20.00;;
18933;SDS011;9599;53.706;10.384;2023-05-18T05:55:56;22.03;;;20.20;;
18933;SDS011;9599;53.706;10.384;2023-05-18T05:58:24;20.20;;;18.67;;
18933;SDS011;9599;53.706;10.384;2023-05-18T06:00:56;22.10;;;20.20;;
18933;SDS011;9599;53.706;10.384;2023-05-18T06:03:25;21.90;;;20.37;;
18933;SDS011;9599;53.706;10.384;2023-05-18T06:06:00;21.47;;;20.10;;
18933;SDS011;9599;53.706;10.384;2023-05-18T06:08:28;20.97;;;19.63;;
18933;SDS011;9599;53.706;10.384;2023-05-18T06:10:56;21.40;;;19.70;;
18933;SDS011;9599;53.706;10.384;2023-05-18T06:13:24;20.67;;;19.20;;
18933;SDS011;9599;53.706;10.384;2023-05-18T06:15:54;20.57;;;18.97;;
18933;SDS011;9599;53.706;10.384;2023-05-18T06:18:23;21.27;;;19.83;;
18933;SDS011;9599;53.706;10.384;2023-05-18T06:20:55;19.00;;;17.37;;
18933;SDS011;9599;53.706;10.384;2023-05-18T06:23:26;21.70;;;20.23;;
18933;SDS011;9599;53.706;10.384;2023-05-18T06:26:14;20.93;;;19.53;;
18933;SDS011;9599;53.706;10.384;2023-05-18T06:28:51;22.20;;;20.30;;
18933;SDS011;9599;53.706;10.384;2023-05-18T06:31:24;21.50;;;20.10;;
18933;SDS011;9599;53.706;10.384;2023-05-18T06:34:06;22.50;;;20.80;;
18933;SDS011;9599;53.706;10.384;2023-05-18T06:36:34;22.30;;;20.60;;
18933;SDS011;9599;53.706;10.384;2023-05-18T06:39:04;21.40;;;20.03;;
18933;SDS011;9599;53.706;10.384;2023-05-18T06:41:33;23.20;;;21.30;;
18933;SDS011;9599;53.706;10.384;2023-05-18T06:44:01;22.23;;;20.50;;
18933;SDS011;9599;53.706;10.384;2023-05-18T06:46:34;21.47;;;19.57;;
18933;SDS011;9599;53.706;10.384;2023-05-18T06:49:19;20.13;;;18.83;;
18933;SDS011;9599;53.706;10.384;2023-05-18T06:51:47;23.67;;;21.73;;
18933;SDS011;9599;53.706;10.384;2023-05-18T06:54:17;23.10;;;21.23;;
18933;SDS011;9599;53.706;10.384;2023-05-18T06:56:46;24.00;;;22.20;;
18933;SDS011;9599;53.706;10.384;2023-05-18T06:59:15;24.37;;;22.70;;
18933;SDS011;9599;53.706;10.384;2023-05-18T07:01:43;23.80;;;22.17;;
18933;SDS011;9599;53.706;10.384;2023-05-18T07:04:13;26.53;;;24.13;;
18933;SDS011;9599;53.706;10.384;2023-05-18T07:06:43;26.03;;;23.93;;
18933;SDS011;9599;53.706;10.384;2023-05-18T07:09:11;28.63;;;26.53;;
18933;SDS011;9599;53.706;10.384;2023-05-18T07:11:40;30.07;;;28.07;;
18933;SDS011;9599;53.706;10.384;2023-05-18T07:14:10;28.23;;;26.43;;
18933;SDS011;9599;53.706;10.384;2023-05-18T07:16:38;29.13;;;27.13;;
18933;SDS011;9599;53.706;10.384;2023-05-18T07:19:06;28.73;;;26.77;;
18933;SDS011;9599;53.706;10.384;2023-05-18T07:21:34;27.47;;;25.57;;
18933;SDS011;9599;53.706;10.384;2023-05-18T07:24:02;28.23;;;26.27;;
18933;SDS011;9599;53.706;10.384;2023-05-18T07:26:31;27.73;;;25.83;;
18933;SDS011;9599;53.706;10.384;2023-05-18T07:29:00;27.03;;;24.80;;
18933;SDS011;9599;53.706;10.384;2023-05-18T07:31:28;25.13;;;23.47;;
18933;SDS011;9599;53.706;10.384;2023-05-18T07:33:58;26.83;;;25.10;;
18933;SDS011;9599;53.706;10.384;2023-05-18T07:36:26;25.43;;;23.40;;
18933;SDS011;9599;53.706;10.384;2023-05-18T07:38:54;24.53;;;22.90;;
18933;SDS011;9599;53.706;10.384;2023-05-18T07:41:24;23.93;;;22.23;;
18933;SDS011;9599;53.706;10.384;2023-05-18T07:43:53;25.60;;;23.87;;
18933;SDS011;9599;53.706;10.384;2023-05-18T07:46:22;24.47;;;22.80;;
18933;SDS011;9599;53.706;10.384;2023-05-18T07:48:51;24.80;;;23.20;;
18933;SDS011;9599;53.706;10.384;2023-05-18T07:51:19;24.23;;;22.57;;
18933;SDS011;9599;53.706;10.384;2023-05-18T07:53:47;24.67;;;22.83;;
18933;SDS011;9599;53.706;10.384;2023-05-18T07:56:15;21.77;;;20.13;;
18933;SDS011;9599;53.706;10.384;2023-05-18T07:58:43;22.03;;;20.27;;
18933;SDS011;9599;53.706;10.384;2023-05-18T08:01:11;23.20;;;21.40;;
18933;SDS011;9599;53.706;10.384;2023-05-18T08:03:40;25.80;;;24.10;;
18933;SDS011;9599;53.706;10.384;2023-05-18T08:06:11;23.67;;;22.17;;
18933;SDS011;9599;53.706;10.384;2023-05-18T08:08:39;25.97;;;23.87;;
18933;SDS011;9599;53.706;10.384;2023-05-18T08:11:07;25.53;;;23.60;;
18933;SDS011;9599;53.706;10.384;2023-05-18T08:13:35;26.67;;;24.60;;
18933;SDS011;9599;53.706;10.384;2023-05-18T08:16:03;23.47;;;21.80;;
18933;SDS011;9599;53.706;10.384;2023-05-18T08:18:38;24.67;;;23.00;;
18933;SDS011;9599;53.706;10.384;2023-05-18T08:21:07;28.53;;;26.57;;
18933;SDS011;9599;53.706;10.384;2023-05-18T08:23:35;26.97;;;24.90;;
18933;SDS011;9599;53.706;10.384;2023-05-18T08:26:04;26.13;;;24.43;;
18933;SDS011;9599;53.706;10.384;2023-05-18T08:28:33;26.13;;;24.40;;
18933;SDS011;9599;53.706;10.384;2023-05-18T08:31:01;24.80;;;23.00;;
18933;SDS011;9599;53.706;10.384;2023-05-18T08:33:29;22.87;;;21.27;;
18933;SDS011;9599;53.706;10.384;2023-05-18T08:35:58;22.63;;;20.73;;
18933;SDS011;9599;53.706;10.384;2023-05-18T08:38:27;18.37;;;17.13;;
18933;SDS011;9599;53.706;10.384;2023-05-18T08:40:58;19.83;;;18.43;;
18933;SDS011;9599;53.706;10.384;2023-05-18T08:43:33;18.80;;;17.37;;
18933;SDS011;9599;53.706;10.384;2023-05-18T08:46:06;17.40;;;16.20;;
18933;SDS011;9599;53.706;10.384;2023-05-18T08:48:42;19.63;;;18.23;;
18933;SDS011;9599;53.706;10.384;2023-05-18T08:51:12;18.50;;;17.13;;
18933;SDS011;9599;53.706;10.384;2023-05-18T08:53:47;19.70;;;17.97;;
18933;SDS011;9599;53.706;10.384;2023-05-18T08:56:20;20.97;;;19.37;;
18933;SDS011;9599;53.706;10.384;2023-05-18T08:58:51;21.50;;;19.90;;
18933;SDS011;9599;53.706;10.384;2023-05-18T09:01:22;21.53;;;19.90;;
18933;SDS011;9599;53.706;10.384;2023-05-18T09:03:55;20.60;;;19.23;;
18933;SDS011;9599;53.706;10.384;2023-05-18T09:06:24;20.13;;;18.93;;
18933;SDS011;9599;53.706;10.384;2023-05-18T09:08:55;21.73;;;19.97;;
18933;SDS011;9599;53.706;10.384;2023-05-18T09:11:25;20.97;;;19.37;;
18933;SDS011;9599;53.706;10.384;2023-05-18T09:13:53;18.40;;;16.83;;
18933;SDS011;9599;53.706;10.384;2023-05-18T09:16:22;19.90;;;18.17;;
18933;SDS011;9599;53.706;10.384;2023-05-18T09:18:50;18.23;;;17.10;;
18933;SDS011;9599;53.706;10.384;2023-05-18T09:21:18;19.03;;;17.63;;
18933;SDS011;9599;53.706;10.384;2023-05-18T09:23:46;19.80;;;18.23;;
18933;SDS011;9599;53.706;10.384;2023-05-18T09:26:16;20.60;;;19.00;;
18933;SDS011;9599;53.706;10.384;2023-05-18T09:28:46;22.23;;;20.43;;
18933;SDS011;9599;53.706;10.384;2023-05-18T09:31:19;22.30;;;20.70;;
18933;SDS011;9599;53.706;10.384;2023-05-18T09:33:49;20.27;;;19.03;;
18933;SDS011;9599;53.706;10.384;2023-05-18T09:36:22;20.90;;;19.40;;
18933;SDS011;9599;53.706;10.384;2023-05-18T09:38:53;21.63;;;19.93;;
18933;SDS011;9599;53.706;10.384;2023-05-18T09:41:24;21.97;;;20.43;;
18933;SDS011;9599;53.706;10.384;2023-05-18T09:43:53;22.57;;;21.07;;
18933;SDS011;9599;53.706;10.384;2023-05-18T09:46:21;25.50;;;23.27;;
18933;SDS011;9599;53.706;10.384;2023-05-18T09:48:50;23.93;;;22.33;;
18933;SDS011;9599;53.706;10.384;2023-05-18T09:51:20;24.13;;;22.63;;
18933;SDS011;9599;53.706;10.384;2023-05-18T09:53:52;24.30;;;22.90;;
18933;SDS011;9599;53.706;10.384;2023-05-18T09:56:23;23.53;;;21.83;;
18933;SDS011;9599;53.706;10.384;2023-05-18T09:58:52;21.80;;;20.40;;
18933;SDS011;9599;53.706;10.384;2023-05-18T10:01:20;22.47;;;21.00;;
18933;SDS011;9599;53.706;10.384;2023-05-18T10:03:48;22.53;;;21.23;;
18933;SDS011;9599;53.706;10.384;2023-05-18T10:06:18;22.13;;;20.60;;
18933;SDS011;9599;53.706;10.384;2023-05-18T10:08:47;20.20;;;18.50;;
18933;SDS011;9599;53.706;10.384;2023-05-18T10:11:16;23.80;;;22.13;;
18933;SDS011;9599;53.706;10.384;2023-05-18T10:13:46;22.70;;;21.17;;
18933;SDS011;9599;53.706;10.384;2023-05-18T10:16:19;21.47;;;20.00;;
18933;SDS011;9599;53.706;10.384;2023-05-18T10:18:50;23.60;;;21.83;;
18933;SDS011;9599;53.706;10.384;2023-05-18T10:21:21;22.87;;;21.27;;
18933;SDS011;9599;53.706;10.384;2023-05-18T10:23:53;22.63;;;20.73;;
18933;SDS011;9599;53.706;10.384;2023-05-18T10:26:22;24.13;;;22.20;;
18933;SDS011;9599;53.706;10.384;2023-05-18T10:28:56;24.60;;;22.63;;
18933;SDS011;9599;53.706;10.384;2023-05-18T10:31:26;22.20;;;20.73;;
18933;SDS011;9599;53.706;10.384;2023-05-18T10:33:57;23.03;;;21.37;;
18933;SDS011;9599;53.706;10.384;2023-05-18T10:36:26;23.97;;;22.17;;
18933;SDS011;9599;53.706;10.384;2023-05-18T10:38:58;23.43;;;21.63;;
18933;SDS011;9599;53.706;10.384;2023-05-18T10:41:27;23.60;;;21.93;;
18933;SDS011;9599;53.706;10.384;2023-05-18T10:43:58;23.60;;;22.00;;
18933;SDS011;9599;53.706;10.384;2023-05-18T10:46:29;23.80;;;22.27;;
18933;SDS011;9599;53.706;10.384;2023-05-18T10:48:58;22.50;;;21.07;;
18933;SDS011;9599;53.706;10.384;2023-05-18T10:51:28;20.20;;;18.70;;
18933;SDS011;9599;53.706;10.384;2023-05-18T10:53:57;22.27;;;20.67;;
18933;SDS011;9599;53.706;10.384;2023-05-18T10:56:36;21.87;;;20.47;;
18933;SDS011;9599;53.706;10.384;2023-05-18T10:59:07;21.83;;;20.27;;
18933;SDS011;9599;53.706;10.384;2023-05-18T11:01:37;21.10;;;19.87;;
18933;SDS011;9599;53.706;10.384;2023-05-18T11:04:07;22.00;;;20.50;;
18933;SDS011;9599;53.706;10.384;2023-05-18T11:06:35;24.00;;;22.20;;
18933;SDS011;9599;53.706;10.384;2023-05-18T11:09:03;24.57;;;22.67;;
18933;SDS011;9599;53.706;10.384;2023-05-18T11:11:43;24.40;;;22.63;;
18933;SDS011;9599;53.706;10.384;2023-05-18T11:14:24;23.57;;;21.77;;
18933;SDS011;9599;53.706;10.384;2023-05-18T11:16:53;22.43;;;20.47;;
18933;SDS011;9599;53.706;10.384;2023-05-18T11:22:43;24.13;;;22.57;;
18933;SDS011;9599;53.706;10.384;2023-05-18T11:28:07;27.03;;;25.13;;
18933;SDS011;9599;53.706;10.384;2023-05-18T11:30:45;27.65;;;25.45;;
18933;SDS011;9599;53.706;10.384;2023-05-18T11:33:16;23.27;;;21.87;;
18933;SDS011;9599;53.706;10.384;2023-05-18T11:36:02;24.43;;;22.87;;
18933;SDS011;9599;53.706;10.384;2023-05-18T11:38:52;28.73;;;26.83;;
18933;SDS011;9599;53.706;10.384;2023-05-18T11:41:28;27.10;;;25.30;;
18933;SDS011;9599;53.706;10.384;2023-05-18T11:44:14;29.63;;;27.50;;
18933;SDS011;9599;53.706;10.384;2023-05-18T11:46:51;28.90;;;26.90;;
18933;SDS011;9599;53.706;10.384;2023-05-18T11:49:21;27.00;;;25.40;;
18933;SDS011;9599;53.706;10.384;2023-05-18T11:54:43;26.27;;;24.60;;
18933;SDS011;9599;53.706;10.384;2023-05-18T11:57:13;28.80;;;26.83;;
18933;SDS011;9599;53.706;10.384;2023-05-18T11:59:44;28.13;;;26.20;;
18933;SDS011;9599;53.706;10.384;2023-05-18T12:02:19;28.30;;;26.57;;
18933;SDS011;9599;53.706;10.384;2023-05-18T12:04:51;28.33;;;26.43;;
18933;SDS011;9599;53.706;10.384;2023-05-18T12:07:20;28.57;;;26.40;;
18933;SDS011;9599;53.706;10.384;2023-05-18T12:09:48;27.10;;;25.13;;
18933;SDS011;9599;53.706;10.384;2023-05-18T12:12:17;26.97;;;25.27;;
18933;SDS011;9599;53.706;10.384;2023-05-18T12:14:51;28.17;;;26.20;;
18933;SDS011;9599;53.706;10.384;2023-05-18T12:17:22;29.07;;;26.47;;
18933;SDS011;9599;53.706;10.384;2023-05-18T12:19:50;28.20;;;26.33;;
18933;SDS011;9599;53.706;10.384;2023-05-18T12:22:18;27.50;;;25.80;;
18933;SDS011;9599;53.706;10.384;2023-05-18T12:24:50;27.10;;;25.40;;
18933;SDS011;9599;53.706;10.384;2023-05-18T12:27:19;29.00;;;26.97;;
18933;SDS011;9599;53.706;10.384;2023-05-18T12:29:48;27.47;;;25.47;;
18933;SDS011;9599;53.706;10.384;2023-05-18T12:32:16;25.77;;;24.07;;
18933;SDS011;9599;53.706;10.384;2023-05-18T12:34:49;25.03;;;23.17;;
18933;SDS011;9599;53.706;10.384;2023-05-18T12:37:17;26.83;;;25.10;;
18933;SDS011;9599;53.706;10.384;2023-05-18T12:39:52;23.83;;;22.17;;
18933;SDS011;9599;53.706;10.384;2023-05-18T12:42:20;22.30;;;20.50;;
18933;SDS011;9599;53.706;10.384;2023-05-18T12:44:48;24.00;;;22.23;;
18933;SDS011;9599;53.706;10.384;2023-05-18T12:47:16;24.43;;;22.83;;
18933;SDS011;9599;53.706;10.384;2023-05-18T12:49:48;22.43;;;20.73;;
18933;SDS011;9599;53.706;10.384;2023-05-18T12:52:16;23.53;;;21.80;;
18933;SDS011;9599;53.706;10.384;2023-05-18T12:54:48;21.43;;;20.03;;
18933;SDS011;9599;53.706;10.384;2023-05-18T12:57:21;22.37;;;20.87;;
18933;SDS011;9599;53.706;10.384;2023-05-18T12:59:52;23.67;;;21.83;;
18933;SDS011;9599;53.706;10.384;2023-05-18T13:02:25;22.53;;;20.87;;
18933;SDS011;9599;53.706;10.384;2023-05-18T13:05:06;22.57;;;20.97;;
18933;SDS011;9599;53.706;10.384;2023-05-18T13:07:37;22.50;;;20.70;;
18933;SDS011;9599;53.706;10.384;2023-05-18T13:10:07;23.07;;;21.27;;
18933;SDS011;9599;53.706;10.384;2023-05-18T13:12:37;22.07;;;20.57;;
18933;SDS011;9599;53.706;10.384;2023-05-18T13:15:12;22.23;;;20.67;;
18933;SDS011;9599;53.706;10.384;2023-05-18T13:20:34;22.57;;;20.80;;
18933;SDS011;9599;53.706;10.384;2023-05-18T13:23:06;21.37;;;19.97;;
18933;SDS011;9599;53.706;10.384;2023-05-18T13:25:35;22.30;;;20.70;;
18933;SDS011;9599;53.706;10.384;2023-05-18T13:28:03;22.53;;;21.10;;
18933;SDS011;9599;53.706;10.384;2023-05-18T13:30:32;24.63;;;22.83;;
18933;SDS011;9599;53.706;10.384;2023-05-18T13:33:00;23.53;;;21.83;;
18933;SDS011;9599;53.706;10.384;2023-05-18T13:35:29;22.33;;;20.77;;
18933;SDS011;9599;53.706;10.384;2023-05-18T13:37:59;23.17;;;21.47;;
18933;SDS011;9599;53.706;10.384;2023-05-18T13:40:27;23.30;;;21.57;;
18933;SDS011;9599;53.706;10.384;2023-05-18T13:42:56;22.47;;;20.90;;
18933;SDS011;9599;53.706;10.384;2023-05-18T13:45:24;21.80;;;20.37;;
18933;SDS011;9599;53.706;10.384;2023-05-18T13:47:52;21.03;;;19.50;;
18933;SDS011;9599;53.706;10.384;2023-05-18T13:50:20;22.13;;;20.73;;
18933;SDS011;9599;53.706;10.384;2023-05-18T13:52:49;21.97;;;20.37;;
18933;SDS011;9599;53.706;10.384;2023-05-18T13:55:18;22.30;;;20.73;;
18933;SDS011;9599;53.706;10.384;2023-05-18T13:57:46;21.40;;;19.90;;
18933;SDS011;9599;53.706;10.384;2023-05-18T14:00:14;21.73;;;19.90;;
18933;SDS011;9599;53.706;10.384;2023-05-18T14:02:43;22.33;;;21.03;;
18933;SDS011;9599;53.706;10.384;2023-05-18T14:05:12;22.73;;;21.23;;
18933;SDS011;9599;53.706;10.384;2023-05-18T14:07:41;20.83;;;19.60;;
18933;SDS011;9599;53.706;10.384;2023-05-18T14:10:10;19.90;;;18.60;;
18933;SDS011;9599;53.706;10.384;2023-05-18T14:12:40;22.60;;;21.03;;
18933;SDS011;9599;53.706;10.384;2023-05-18T14:15:10;21.37;;;19.93;;
18933;SDS011;9599;53.706;10.384;2023-05-18T14:17:40;20.33;;;18.93;;
18933;SDS011;9599;53.706;10.384;2023-05-18T14:20:08;21.23;;;19.83;;
18933;SDS011;9599;53.706;10.384;2023-05-18T14:22:37;21.40;;;19.97;;
18933;SDS011;9599;53.706;10.384;2023-05-18T14:25:05;22.23;;;20.60;;
18933;SDS011;9599;53.706;10.384;2023-05-18T14:27:34;22.37;;;20.87;;
18933;SDS011;9599;53.706;10.384;2023-05-18T14:30:04;20.60;;;19.07;;
18933;SDS011;9599;53.706;10.384;2023-05-18T14:32:33;20.70;;;19.20;;
18933;SDS011;9599;53.706;10.384;2023-05-18T14:35:01;21.47;;;20.00;;
18933;SDS011;9599;53.706;10.384;2023-05-18T14:37:29;21.07;;;19.50;;
18933;SDS011;9599;53.706;10.384;2023-05-18T14:39:58;22.10;;;20.67;;
18933;SDS011;9599;53.706;10.384;2023-05-18T14:42:26;22.20;;;20.53;;
18933;SDS011;9599;53.706;10.384;2023-05-18T14:44:54;22.50;;;21.03;;
18933;SDS011;9599;53.706;10.384;2023-05-18T14:47:23;21.13;;;19.83;;
18933;SDS011;9599;53.706;10.384;2023-05-18T14:49:52;24.17;;;22.43;;
18933;SDS011;9599;53.706;10.384;2023-05-18T14:52:19;23.30;;;21.70;;
18933;SDS011;9599;53.706;10.384;2023-05-18T14:54:48;21.77;;;20.37;;